createdAt,value
2023-01-21T00:02:26.429Z,93.80
2023-01-21T00:05:15.749Z,93.94
2023-01-21T00:08:55.160Z,93.97
2023-01-21T00:13:14.957Z,93.91
2023-01-21T00:19:52.076Z,94.02
2023-01-21T00:23:32.221Z,93.99
2023-01-21T00:27:13.022Z,94.17
2023-01-21T00:30:43.087Z,94.24
2023-01-21T00:33:58.007Z,94.22
2023-01-21T00:37:44.704Z,93.96
2023-01-21T00:41:43.326Z,93.92
2023-01-21T00:45:15.052Z,93.68
2023-01-21T00:48:36.517Z,93.53
2023-01-21T00:52:06.075Z,93.64
2023-01-21T00:55:27.005Z,93.57
2023-01-21T00:59:00.981Z,93.81
2023-01-21T01:02:24.116Z,94.12
2023-01-21T01:05:55.878Z,95.25
2023-01-21T01:09:26.056Z,94.97
2023-01-21T01:13:20.948Z,95.86
2023-01-21T01:17:11.056Z,95.85
2023-01-21T01:20:34.978Z,95.61
2023-01-21T01:23:55.162Z,96.03
2023-01-21T01:27:17.995Z,95.79
2023-01-21T01:31:11.593Z,95.75
2023-01-21T01:34:55.002Z,96.03
2023-01-21T01:38:09.999Z,95.93
2023-01-21T01:41:30.210Z,96.32
2023-01-21T01:44:48.326Z,96.40
2023-01-21T01:48:18.984Z,96.42
2023-01-21T01:51:19.084Z,96.12
2023-01-21T01:54:49.919Z,96.68
2023-01-21T01:58:24.003Z,96.03
2023-01-21T02:01:36.153Z,95.76
2023-01-21T02:05:10.965Z,95.64
2023-01-21T02:08:37.996Z,95.54
2023-01-21T02:11:51.996Z,95.09
2023-01-21T02:15:11.061Z,94.94
2023-01-21T02:19:16.965Z,94.66
2023-01-21T02:22:40.218Z,94.59
2023-01-21T02:26:15.108Z,94.44
2023-01-21T02:29:19.214Z,94.21
2023-01-21T02:36:30.027Z,93.98
2023-01-21T02:40:05.990Z,94.17
2023-01-21T02:43:29.983Z,94.00
2023-01-21T02:46:41.138Z,94.25
2023-01-21T02:50:12.554Z,94.31
2023-01-21T02:53:43.951Z,94.03
2023-01-21T02:56:57.951Z,93.94
2023-01-21T03:00:19.980Z,93.81
2023-01-21T03:03:32.947Z,93.95
2023-01-21T03:06:46.025Z,93.76
2023-01-21T03:10:04.919Z,93.82
2023-01-21T03:13:12.006Z,93.98
2023-01-21T03:16:23.026Z,94.18
2023-01-21T03:20:39.794Z,94.23
2023-01-21T03:24:16.953Z,94.40
2023-01-21T03:27:35.055Z,94.29
2023-01-21T03:34:39.035Z,94.39
2023-01-21T03:37:46.996Z,94.26
2023-01-21T03:41:33.789Z,94.31
2023-01-21T03:45:08.982Z,94.33
2023-01-21T03:52:30.973Z,93.37
2023-01-21T03:59:34.982Z,93.37
2023-01-21T04:03:12.913Z,93.55
2023-01-21T04:07:03.338Z,93.63
2023-01-21T04:10:40.920Z,94.08
2023-01-21T04:13:47.166Z,93.66
2023-01-21T04:16:15.190Z,93.72
2023-01-21T04:18:43.127Z,93.65
2023-01-21T04:21:11.755Z,93.56
2023-01-21T04:23:41.051Z,93.98
2023-01-21T04:26:39.029Z,94.14
2023-01-21T04:30:19.286Z,93.88
2023-01-21T04:33:56.605Z,93.96
2023-01-21T04:37:53.925Z,93.76
2023-01-21T04:45:09.965Z,94.97
2023-01-21T04:49:02.955Z,95.83
2023-01-21T04:52:37.905Z,95.38
2023-01-21T04:56:12.943Z,94.97
2023-01-21T05:03:32.972Z,94.50
2023-01-21T05:10:42.007Z,93.78
2023-01-21T05:14:15.893Z,93.35
2023-01-21T05:21:39.261Z,93.15
2023-01-21T05:25:04.024Z,93.04
2023-01-21T05:28:33.962Z,93.27
2023-01-21T05:32:28.964Z,93.37
2023-01-21T05:36:02.999Z,93.00
2023-01-21T05:39:31.983Z,93.02
2023-01-21T05:46:35.980Z,93.53
2023-01-21T05:50:08.961Z,93.45
2023-01-21T05:53:44.326Z,93.50
2023-01-21T05:57:33.718Z,93.46
2023-01-21T06:01:17.009Z,93.56
2023-01-21T06:04:38.843Z,93.66
2023-01-21T06:07:42.834Z,93.92
2023-01-21T06:10:26.953Z,93.81
2023-01-21T06:13:25.926Z,93.95
2023-01-21T06:16:49.028Z,93.86
2023-01-21T06:19:57.959Z,93.91
2023-01-21T06:23:42.932Z,94.01
2023-01-21T06:27:29.966Z,93.86
2023-01-21T06:31:07.063Z,93.78
2023-01-21T06:38:23.968Z,93.76
2023-01-21T06:41:57.067Z,93.69
2023-01-21T06:45:39.627Z,93.56
2023-01-21T06:49:11.967Z,93.58
2023-01-21T06:52:58.741Z,93.57
2023-01-21T06:56:33.017Z,93.60
2023-01-21T07:00:06.969Z,93.33
2023-01-21T07:03:24.363Z,93.26
2023-01-21T07:06:46.467Z,93.41
2023-01-21T07:09:54.621Z,93.51
2023-01-21T07:12:28.633Z,93.49
2023-01-21T07:15:21.878Z,93.48
2023-01-21T07:18:30.096Z,93.39
2023-01-21T07:21:25.103Z,93.46
2023-01-21T07:24:20.885Z,93.06
2023-01-21T07:27:22.702Z,92.76
2023-01-21T07:30:25.778Z,92.36
2023-01-21T07:33:33.887Z,92.82
2023-01-21T07:36:22.579Z,93.10
2023-01-21T07:39:24.814Z,92.89
2023-01-21T07:42:33.840Z,92.95
2023-01-21T07:45:11.438Z,92.61
2023-01-21T07:48:09.810Z,92.42
2023-01-21T07:50:58.843Z,92.39
2023-01-21T07:54:06.879Z,92.53
2023-01-21T07:57:14.605Z,92.41
2023-01-21T08:00:04.125Z,92.63
2023-01-21T08:03:10.424Z,92.44
2023-01-21T08:06:15.934Z,92.28
2023-01-21T08:09:57.917Z,91.90
2023-01-21T08:13:35.952Z,91.89
2023-01-21T08:16:51.929Z,92.06
2023-01-21T08:23:55.946Z,90.63
2023-01-21T08:27:31.942Z,90.70
2023-01-21T08:31:26.580Z,91.07
2023-01-21T08:34:29.612Z,89.55
2023-01-21T08:37:20.004Z,89.21
2023-01-21T08:40:31.197Z,90.00
2023-01-21T08:44:03.083Z,89.66
2023-01-21T08:47:09.629Z,88.79
2023-01-21T08:49:59.689Z,89.05
2023-01-21T08:53:08.073Z,89.32
2023-01-21T08:56:18.052Z,89.23
2023-01-21T08:59:08.199Z,89.01
2023-01-21T09:02:35.706Z,88.69
2023-01-21T09:05:31.908Z,88.29
2023-01-21T09:09:08.984Z,88.55
2023-01-21T09:12:48.713Z,88.39
2023-01-21T09:15:24.150Z,88.79
2023-01-21T09:18:14.459Z,88.55
2023-01-21T09:21:03.988Z,88.45
2023-01-21T09:23:55.770Z,88.65
2023-01-21T09:26:25.501Z,88.48
2023-01-21T09:28:57.674Z,88.69
2023-01-21T09:31:28.232Z,89.01
2023-01-21T09:34:01.179Z,88.92
2023-01-21T09:36:34.192Z,88.63
2023-01-21T09:39:03.590Z,88.30
2023-01-21T09:41:54.741Z,86.93
2023-01-21T09:44:49.057Z,86.88
2023-01-21T09:47:26.840Z,87.13
2023-01-21T09:50:00.556Z,87.41
2023-01-21T09:52:46.391Z,86.59
2023-01-21T09:55:25.502Z,86.59
2023-01-21T09:58:11.649Z,85.76
2023-01-21T10:01:04.830Z,85.17
2023-01-21T10:03:55.554Z,85.47
2023-01-21T10:06:52.456Z,85.66
2023-01-21T10:09:50.711Z,85.84
2023-01-21T10:12:54.764Z,85.93
2023-01-21T10:15:42.828Z,84.75
2023-01-21T10:18:37.198Z,85.27
2023-01-21T10:21:28.910Z,85.29
2023-01-21T10:24:09.646Z,85.08
2023-01-21T10:26:38.197Z,84.76
2023-01-21T10:29:14.877Z,84.92
2023-01-21T10:32:08.713Z,84.72
2023-01-21T10:34:45.132Z,85.06
2023-01-21T10:37:36.449Z,83.97
2023-01-21T10:40:42.588Z,84.48
2023-01-21T10:43:44.543Z,84.38
2023-01-21T10:46:38.865Z,83.95
2023-01-21T10:49:45.549Z,83.66
2023-01-21T10:52:34.915Z,83.82
2023-01-21T10:55:26.217Z,83.65
2023-01-21T10:58:12.008Z,79.17
2023-01-21T11:00:47.377Z,77.43
2023-01-21T11:03:29.005Z,77.73
2023-01-21T11:06:05.052Z,77.03
2023-01-21T11:08:33.338Z,76.18
2023-01-21T11:11:03.160Z,75.33
2023-01-21T11:13:31.197Z,75.16
2023-01-21T11:16:02.493Z,72.50
2023-01-21T11:18:36.822Z,73.57
2023-01-21T11:21:40.709Z,74.54
2023-01-21T11:24:25.685Z,74.99
2023-01-21T11:26:57.783Z,75.94
2023-01-21T11:29:28.116Z,76.27
2023-01-21T11:32:14.216Z,76.43
2023-01-21T11:34:54.351Z,76.67
2023-01-21T11:37:26.281Z,76.94
2023-01-21T11:40:01.599Z,76.02
2023-01-21T11:42:32.320Z,76.13
2023-01-21T11:45:11.113Z,76.58
2023-01-21T11:47:52.502Z,77.02
2023-01-21T11:50:53.483Z,76.67
2023-01-21T11:53:29.897Z,77.15
2023-01-21T11:56:00.241Z,77.79
2023-01-21T11:58:33.713Z,78.03
2023-01-21T12:01:08.262Z,76.71
2023-01-21T12:03:46.178Z,77.30
2023-01-21T12:06:24.210Z,77.07
2023-01-21T12:08:56.691Z,77.04
2023-01-21T12:11:29.897Z,76.64
2023-01-21T12:14:30.386Z,76.49
2023-01-21T12:17:19.726Z,76.20
2023-01-21T12:20:09.353Z,75.94
2023-01-21T12:23:03.847Z,76.15
2023-01-21T12:25:43.520Z,73.09
2023-01-21T12:28:30.523Z,75.27
2023-01-21T12:31:22.930Z,73.16
2023-01-21T12:34:15.483Z,72.32
2023-01-21T12:36:52.490Z,70.32
2023-01-21T12:39:44.125Z,69.19
2023-01-21T12:42:21.742Z,68.68
2023-01-21T12:45:30.053Z,69.90
2023-01-21T12:48:06.970Z,71.04
2023-01-21T12:51:03.813Z,71.70
2023-01-21T12:53:44.707Z,71.99
2023-01-21T12:56:39.104Z,72.55
2023-01-21T12:59:38.355Z,72.76
2023-01-21T13:02:34.222Z,72.97
2023-01-21T13:05:48.073Z,73.33
2023-01-21T13:09:28.906Z,73.71
2023-01-21T13:12:45.993Z,72.72
2023-01-21T13:16:02.047Z,73.54
2023-01-21T13:19:33.987Z,74.44
2023-01-21T13:23:12.948Z,75.09
2023-01-21T13:30:07.303Z,72.95
2023-01-21T13:33:41.957Z,71.55
2023-01-21T13:37:07.927Z,73.55
2023-01-21T13:40:41.960Z,71.28
2023-01-21T13:44:16.956Z,73.04
2023-01-21T13:48:01.024Z,71.62
2023-01-21T13:51:37.897Z,72.03
2023-01-21T13:55:09.264Z,72.13
2023-01-21T13:58:38.032Z,71.09
2023-01-21T14:01:40.189Z,69.18
2023-01-21T14:04:49.917Z,69.55
2023-01-21T14:07:58.019Z,67.57
2023-01-21T14:11:19.039Z,68.56
2023-01-21T14:14:25.648Z,69.98
2023-01-21T14:17:27.407Z,69.50
2023-01-21T14:20:46.510Z,70.19
2023-01-21T14:23:48.371Z,70.91
2023-01-21T14:27:15.400Z,71.37
2023-01-21T14:30:38.955Z,71.67
2023-01-21T14:37:53.636Z,73.22
2023-01-21T14:40:58.076Z,73.39
2023-01-21T14:43:47.441Z,73.65
2023-01-21T14:46:25.216Z,73.87
2023-01-21T14:49:08.067Z,74.48
2023-01-21T14:51:43.434Z,74.75
2023-01-21T14:54:17.223Z,75.03
2023-01-21T14:56:58.050Z,75.37
2023-01-21T14:59:37.253Z,75.36
2023-01-21T15:02:26.152Z,75.42
2023-01-21T15:04:58.707Z,75.64
2023-01-21T15:07:43.285Z,75.60
2023-01-21T15:10:18.654Z,75.86
2023-01-21T15:12:53.777Z,76.03
2023-01-21T15:15:36.344Z,76.22
2023-01-21T15:18:24.004Z,76.31
2023-01-21T15:20:58.558Z,76.28
2023-01-21T15:23:38.644Z,76.50
2023-01-21T15:26:20.224Z,76.62
2023-01-21T15:28:52.128Z,77.03
2023-01-21T15:31:41.243Z,77.13
2023-01-21T15:34:16.029Z,77.32
2023-01-21T15:36:48.282Z,77.16
2023-01-21T15:39:22.970Z,77.52
2023-01-21T15:42:06.117Z,77.41
2023-01-21T15:44:59.714Z,77.42
2023-01-21T15:47:45.566Z,77.41
2023-01-21T15:50:28.036Z,77.45
2023-01-21T15:53:10.404Z,77.52
2023-01-21T15:56:02.284Z,77.75
2023-01-21T15:58:45.990Z,77.75
2023-01-21T16:01:32.822Z,77.68
2023-01-21T16:04:12.470Z,77.62
2023-01-21T16:07:08.898Z,77.65
2023-01-21T16:10:06.561Z,77.58
2023-01-21T16:12:50.796Z,77.94
2023-01-21T16:15:35.601Z,77.56
2023-01-21T16:18:27.685Z,77.73
2023-01-21T16:20:58.333Z,77.72
2023-01-21T16:23:31.813Z,77.78
2023-01-21T16:25:59.802Z,77.94
2023-01-21T16:28:41.886Z,78.19
2023-01-21T16:31:09.954Z,77.86
2023-01-21T16:33:37.983Z,77.80
2023-01-21T16:36:09.546Z,78.06
2023-01-21T16:38:38.173Z,78.01
2023-01-21T16:41:45.789Z,78.10
2023-01-21T16:44:16.765Z,78.31
2023-01-21T16:46:46.525Z,78.27
2023-01-21T16:49:17.399Z,78.29
2023-01-21T16:52:01.936Z,78.37
2023-01-21T16:54:32.103Z,78.66
2023-01-21T16:57:03.302Z,78.60
2023-01-21T16:59:39.838Z,78.81
2023-01-21T17:02:26.857Z,78.57
2023-01-21T17:04:58.327Z,78.28
2023-01-21T17:07:32.420Z,78.37
2023-01-21T17:10:07.066Z,78.76
2023-01-21T17:12:36.483Z,79.21
2023-01-21T17:15:19.296Z,78.84
2023-01-21T17:17:47.640Z,78.84
2023-01-21T17:20:35.453Z,79.18
2023-01-21T17:23:09.309Z,79.26
2023-01-21T17:25:37.638Z,79.63
2023-01-21T17:28:38.090Z,79.59
2023-01-21T17:31:27.034Z,79.24
2023-01-21T17:34:20.203Z,78.97
2023-01-21T17:36:50.543Z,77.97
2023-01-21T17:39:52.606Z,78.59
2023-01-21T17:42:23.265Z,78.82
2023-01-21T17:44:55.138Z,78.78
2023-01-21T17:47:29.232Z,78.63
2023-01-21T17:50:16.359Z,78.70
2023-01-21T17:52:53.500Z,78.46
2023-01-21T17:55:28.597Z,78.81
2023-01-21T17:57:58.429Z,78.90
2023-01-21T18:00:44.942Z,78.94
2023-01-21T18:03:13.826Z,78.98
2023-01-21T18:05:43.186Z,79.06
2023-01-21T18:08:17.563Z,79.23
2023-01-21T18:10:46.719Z,79.33
2023-01-21T18:13:16.704Z,79.23
2023-01-21T18:15:49.682Z,79.60
2023-01-21T18:18:20.789Z,79.71
2023-01-21T18:20:48.781Z,79.90
2023-01-21T18:23:18.262Z,80.16
2023-01-21T18:25:50.825Z,80.32
2023-01-21T18:28:22.835Z,80.34
2023-01-21T18:30:52.306Z,80.43
2023-01-21T18:33:22.317Z,80.53
2023-01-21T18:35:52.235Z,80.73
2023-01-21T18:38:27.216Z,81.35
2023-01-21T18:40:59.378Z,81.42
2023-01-21T18:43:27.354Z,83.10
2023-01-21T18:45:55.713Z,82.64
2023-01-21T18:48:29.449Z,82.31
2023-01-21T18:51:01.485Z,82.21
2023-01-21T18:53:29.869Z,82.19
2023-01-21T18:55:58.168Z,82.14
2023-01-21T18:58:32.848Z,82.06
2023-01-21T19:01:10.794Z,81.83
2023-01-21T19:03:43.441Z,81.87
2023-01-21T19:06:16.162Z,81.73
2023-01-21T19:08:48.583Z,81.65
2023-01-21T19:11:19.252Z,81.52
2023-01-21T19:13:47.534Z,81.33
2023-01-21T19:16:21.612Z,81.26
2023-01-21T19:19:19.048Z,81.52
2023-01-21T19:21:53.437Z,81.43
2023-01-21T19:24:25.068Z,81.27
2023-01-21T19:26:53.987Z,81.72
2023-01-21T19:29:31.461Z,81.54
2023-01-21T19:32:08.124Z,81.63
2023-01-21T19:34:37.727Z,81.61
2023-01-21T19:37:06.491Z,81.64
2023-01-21T19:39:34.722Z,81.79
2023-01-21T19:42:08.874Z,81.80
2023-01-21T19:44:39.355Z,82.15
2023-01-21T19:47:18.952Z,82.18
2023-01-21T19:49:49.311Z,82.05
2023-01-21T19:52:17.773Z,82.13
2023-01-21T19:54:47.900Z,82.18
2023-01-21T19:57:18.965Z,82.27
2023-01-21T19:59:49.469Z,82.34
2023-01-21T20:02:24.891Z,82.56
2023-01-21T20:04:53.096Z,82.51
2023-01-21T20:07:22.130Z,82.79
2023-01-21T20:09:53.671Z,82.90
2023-01-21T20:12:23.338Z,83.15
2023-01-21T20:14:51.427Z,83.24
2023-01-21T20:17:22.462Z,83.38
2023-01-21T20:19:50.633Z,83.43
2023-01-21T20:22:18.796Z,83.35
2023-01-21T20:24:47.087Z,83.68
2023-01-21T20:27:15.394Z,83.29
2023-01-21T20:29:55.593Z,82.97
2023-01-21T20:32:27.205Z,82.89
2023-01-21T20:34:55.466Z,83.01
2023-01-21T20:37:23.646Z,83.08
2023-01-21T20:40:17.000Z,83.12
2023-01-21T20:42:46.209Z,82.90
2023-01-21T20:45:17.253Z,82.95
2023-01-21T20:47:51.634Z,83.03
2023-01-21T20:50:24.458Z,82.91
2023-01-21T20:52:53.539Z,82.78
2023-01-21T20:55:24.714Z,83.06
2023-01-21T20:57:54.301Z,83.09
2023-01-21T21:00:28.218Z,83.33
2023-01-21T21:02:57.936Z,83.63
2023-01-21T21:05:27.752Z,83.45
2023-01-21T21:07:56.313Z,83.39
2023-01-21T21:10:29.695Z,83.40
2023-01-21T21:12:59.317Z,83.89
2023-01-21T21:15:30.675Z,85.46
2023-01-21T21:17:59.769Z,84.81
2023-01-21T21:20:31.530Z,84.62
2023-01-21T21:23:00.407Z,84.25
2023-01-21T21:25:35.402Z,84.25
2023-01-21T21:28:03.921Z,84.09
2023-01-21T21:30:34.361Z,84.37
2023-01-21T21:33:02.850Z,84.62
2023-01-21T21:35:36.199Z,84.53
2023-01-21T21:38:07.893Z,84.52
2023-01-21T21:40:37.502Z,84.41
2023-01-21T21:43:26.276Z,84.26
2023-01-21T21:46:06.492Z,84.67
2023-01-21T21:48:42.586Z,84.59
2023-01-21T21:51:14.878Z,85.17
2023-01-21T21:53:44.161Z,84.48
2023-01-21T21:56:17.028Z,84.60
2023-01-21T21:58:46.131Z,84.05
2023-01-21T22:01:24.371Z,83.93
2023-01-21T22:03:53.285Z,83.91
2023-01-21T22:06:30.943Z,83.91
2023-01-21T22:08:59.736Z,83.82
2023-01-21T22:11:29.013Z,83.53
2023-01-21T22:13:58.299Z,83.74
2023-01-21T22:16:28.608Z,83.96
2023-01-21T22:19:01.176Z,83.68
2023-01-21T22:21:32.858Z,83.58
2023-01-21T22:24:02.875Z,84.25
2023-01-21T22:26:32.351Z,86.24
2023-01-21T22:29:00.503Z,86.32
2023-01-21T22:31:32.546Z,86.02
2023-01-21T22:34:01.230Z,85.69
2023-01-21T22:36:30.953Z,86.66
2023-01-21T22:38:59.409Z,86.52
2023-01-21T22:41:29.024Z,85.75
2023-01-21T22:43:57.096Z,85.57
2023-01-21T22:46:56.911Z,85.33
2023-01-21T22:50:31.913Z,85.94
2023-01-21T22:57:45.962Z,85.44
2023-01-21T23:01:20.971Z,85.39
2023-01-21T23:04:58.949Z,85.65
2023-01-21T23:08:36.958Z,86.32
2023-01-21T23:12:02.877Z,86.25
2023-01-21T23:15:49.953Z,86.28
2023-01-21T23:19:13.875Z,86.21
2023-01-21T23:23:00.904Z,86.06
2023-01-21T23:26:53.928Z,85.61
2023-01-21T23:30:31.079Z,85.43
2023-01-21T23:33:56.732Z,85.38
2023-01-21T23:37:55.908Z,85.48
2023-01-21T23:41:11.912Z,85.35
2023-01-21T23:44:49.988Z,85.59
2023-01-21T23:48:22.860Z,85.94
2023-01-21T23:51:57.962Z,85.79
2023-01-21T23:59:20.894Z,85.71
